TOM225 LMML-EGGD
Flight info
| Callsign | TOM225 |
|---|---|
| Flight time | N/A |
| Altitude | 36000 |
| Route | GZO M622 ADEXI DCT RUGOX DCT MADKA DCT AJO DCT OMEDA DCT MERLU DCT PIGOS DCT BARSO DCT OKTET DCT GIPNO DCT BULOL DCT IDAVO DCT BAGBI DCT SIZZA DCT LAULY DCT BRY DCT CLM DCT KOPOR DCT KESAX DCT KUNAV T421 ICTAM |
| Aircraft | B738/M-SDE2E3FGHIRWXY/LB1 |
Departure
| Time | 2026-05-04 15:04 |
|---|---|
| Airport | Malta International Airport (LMML) |
Arrival
| Time | N/A |
|---|---|
| Airport | Bristol Airport (EGGD) |
| Time | Latitude | Longitude | Altitude | Speed | Heading |
|---|---|---|---|---|---|
| 2026-05-04 14:39 | 35.84904 | 14.49395 | 258 ft | 0 kts | 359° |
| 2026-05-04 14:52 | 35.84895 | 14.49395 | 258 ft | 3 kts | 355° |
| 2026-05-04 14:53 | 35.84875 | 14.49399 | 258 ft | 3 kts | 342° |
| 2026-05-04 14:53 | 35.84856 | 14.49408 | 258 ft | 3 kts | 331° |
| 2026-05-04 14:53 | 35.84839 | 14.49420 | 258 ft | 2 kts | 327° |
| 2026-05-04 14:53 | 35.84831 | 14.49426 | 258 ft | 1 kts | 327° |
| 2026-05-04 14:54 | 35.84830 | 14.49427 | 258 ft | 0 kts | 327° |
| 2026-05-04 14:56 | 35.84834 | 14.49422 | 258 ft | 1 kts | 311° |
| 2026-05-04 14:56 | 35.84838 | 14.49402 | 258 ft | 4 kts | 286° |
| 2026-05-04 14:56 | 35.84861 | 14.49358 | 258 ft | 7 kts | 313° |
| 2026-05-04 14:57 | 35.84873 | 14.49343 | 258 ft | 2 kts | 314° |
| 2026-05-04 14:57 | 35.84885 | 14.49328 | 258 ft | 2 kts | 314° |
| 2026-05-04 14:57 | 35.84897 | 14.49313 | 258 ft | 2 kts | 314° |
| 2026-05-04 14:57 | 35.84911 | 14.49295 | 258 ft | 5 kts | 310° |
| 2026-05-04 14:58 | 35.84930 | 14.49251 | 257 ft | 6 kts | 291° |
| 2026-05-04 14:58 | 35.84931 | 14.49198 | 257 ft | 6 kts | 247° |
| 2026-05-04 14:58 | 35.84907 | 14.49155 | 257 ft | 6 kts | 241° |
| 2026-05-04 14:58 | 35.84904 | 14.49105 | 258 ft | 6 kts | 291° |
| 2026-05-04 14:59 | 35.84928 | 14.49063 | 257 ft | 6 kts | 308° |
| 2026-05-04 14:59 | 35.84952 | 14.49022 | 257 ft | 6 kts | 302° |
| 2026-05-04 14:59 | 35.84984 | 14.48927 | 258 ft | 7 kts | 288° |
| 2026-05-04 15:00 | 35.84999 | 14.48859 | 258 ft | 2 kts | 285° |
| 2026-05-04 15:00 | 35.85000 | 14.48856 | 258 ft | 0 kts | 285° |
| 2026-05-04 15:00 | 35.85010 | 14.48811 | 259 ft | 12 kts | 285° |
| 2026-05-04 15:01 | 35.85075 | 14.48608 | 267 ft | 12 kts | 301° |
| 2026-05-04 15:01 | 35.85123 | 14.48528 | 270 ft | 11 kts | 311° |
| 2026-05-04 15:01 | 35.85201 | 14.48427 | 271 ft | 24 kts | 314° |
| 2026-05-04 15:01 | 35.85352 | 14.48238 | 271 ft | 37 kts | 314° |
| 2026-05-04 15:02 | 35.85551 | 14.47990 | 271 ft | 35 kts | 315° |
| 2026-05-04 15:02 | 35.85622 | 14.47912 | 271 ft | 3 kts | 343° |
| 2026-05-04 15:02 | 35.85628 | 14.47902 | 271 ft | 3 kts | 295° |
| 2026-05-04 15:02 | 35.85618 | 14.47885 | 272 ft | 3 kts | 203° |
| 2026-05-04 15:03 | 35.85604 | 14.47896 | 271 ft | 3 kts | 121° |
| 2026-05-04 15:03 | 35.85594 | 14.47924 | 271 ft | 6 kts | 114° |
| 2026-05-04 15:03 | 35.85508 | 14.48042 | 271 ft | 49 kts | 135° |
| 2026-05-04 15:03 | 35.85063 | 14.48596 | 267 ft | 130 kts | 135° |
| 2026-05-04 15:04 | 35.84293 | 14.49535 | 649 ft | 162 kts | 138° |
| 2026-05-04 15:04 | 35.83601 | 14.50439 | 2012 ft | 133 kts | 133° |
| 2026-05-04 15:04 | 35.82856 | 14.51188 | 2541 ft | 153 kts | 168° |
| 2026-05-04 15:04 | 35.81732 | 14.50930 | 2719 ft | 191 kts | 218° |
| 2026-05-04 15:05 | 35.80961 | 14.49512 | 3104 ft | 211 kts | 243° |
| 2026-05-04 15:05 | 35.80226 | 14.47803 | 3358 ft | 235 kts | 240° |
| 2026-05-04 15:05 | 35.79374 | 14.45982 | 3684 ft | 258 kts | 239° |
| 2026-05-04 15:05 | 35.78434 | 14.44047 | 4433 ft | 266 kts | 239° |
| 2026-05-04 15:06 | 35.77465 | 14.42083 | 5303 ft | 270 kts | 239° |
| 2026-05-04 15:06 | 35.76522 | 14.40075 | 6154 ft | 272 kts | 248° |
| 2026-05-04 15:06 | 35.76114 | 14.37824 | 6713 ft | 269 kts | 272° |
| 2026-05-04 15:07 | 35.77526 | 14.33744 | 6990 ft | 263 kts | 316° |
| 2026-05-04 15:07 | 35.79020 | 14.32451 | 6990 ft | 266 kts | 334° |
| 2026-05-04 15:07 | 35.80736 | 14.31558 | 6987 ft | 269 kts | 338° |
| 2026-05-04 15:07 | 35.82501 | 14.30719 | 6991 ft | 272 kts | 338° |
| 2026-05-04 15:08 | 35.84269 | 14.29888 | 6988 ft | 272 kts | 338° |
| 2026-05-04 15:08 | 35.86042 | 14.29048 | 6986 ft | 272 kts | 338° |
| 2026-05-04 15:08 | 35.87808 | 14.28206 | 6983 ft | 271 kts | 338° |
| 2026-05-04 15:08 | 35.89547 | 14.27371 | 7000 ft | 272 kts | 338° |
| 2026-05-04 15:09 | 35.91318 | 14.26516 | 7533 ft | 271 kts | 338° |
| 2026-05-04 15:09 | 35.93101 | 14.25653 | 7945 ft | 289 kts | 338° |
| 2026-05-04 15:09 | 35.94996 | 14.24733 | 7783 ft | 292 kts | 338° |
| 2026-05-04 15:10 | 35.98626 | 14.22972 | 8032 ft | 264 kts | 338° |
| 2026-05-04 15:10 | 36.00333 | 14.22142 | 8118 ft | 267 kts | 338° |
| 2026-05-04 15:10 | 36.03868 | 14.20378 | 9537 ft | 276 kts | 332° |
| 2026-05-04 15:11 | 36.05517 | 14.19128 | 10315 ft | 281 kts | 324° |
| 2026-05-04 15:11 | 36.07156 | 14.17674 | 10660 ft | 302 kts | 323° |
| 2026-05-04 15:11 | 36.08915 | 14.16065 | 10843 ft | 325 kts | 322° |
| 2026-05-04 15:11 | 36.10791 | 14.14350 | 11106 ft | 344 kts | 323° |
| 2026-05-04 15:12 | 36.12746 | 14.12579 | 11717 ft | 350 kts | 323° |
| 2026-05-04 15:12 | 36.14719 | 14.10808 | 12500 ft | 350 kts | 323° |
| 2026-05-04 15:12 | 36.16700 | 14.09040 | 13273 ft | 352 kts | 323° |
| 2026-05-04 15:12 | 36.18670 | 14.07288 | 13985 ft | 355 kts | 323° |
| 2026-05-04 15:13 | 36.20683 | 14.05501 | 14618 ft | 358 kts | 323° |
| 2026-05-04 15:13 | 36.22718 | 14.03696 | 15230 ft | 361 kts | 323° |
| 2026-05-04 15:13 | 36.24771 | 14.01875 | 15868 ft | 364 kts | 323° |
| 2026-05-04 15:13 | 36.26836 | 14.00042 | 16498 ft | 367 kts | 323° |
| 2026-05-04 15:14 | 36.28923 | 13.98189 | 17110 ft | 370 kts | 323° |
| 2026-05-04 15:14 | 36.31027 | 13.96320 | 17711 ft | 373 kts | 323° |
| 2026-05-04 15:14 | 36.32432 | 13.95071 | 18116 ft | 375 kts | 323° |
| 2026-05-04 15:14 | 36.35259 | 13.92556 | 18833 ft | 379 kts | 323° |
| 2026-05-04 15:15 | 36.37406 | 13.90644 | 19207 ft | 380 kts | 323° |
| 2026-05-04 15:15 | 36.39552 | 13.88732 | 19225 ft | 379 kts | 323° |
| 2026-05-04 15:15 | 36.41703 | 13.86813 | 19237 ft | 382 kts | 323° |
| 2026-05-04 15:16 | 36.45290 | 13.83612 | 19245 ft | 381 kts | 323° |
| 2026-05-04 15:16 | 36.47440 | 13.81691 | 19242 ft | 380 kts | 323° |
| 2026-05-04 15:16 | 36.51753 | 13.77833 | 19288 ft | 385 kts | 323° |
| 2026-05-04 15:17 | 36.53943 | 13.75868 | 19768 ft | 387 kts | 323° |
| 2026-05-04 15:17 | 36.58269 | 13.71983 | 21028 ft | 386 kts | 322° |
| 2026-05-04 15:17 | 36.60454 | 13.70018 | 21504 ft | 389 kts | 322° |
| 2026-05-04 15:18 | 36.62668 | 13.68024 | 21927 ft | 394 kts | 322° |
| 2026-05-04 15:18 | 36.64894 | 13.66019 | 22373 ft | 397 kts | 322° |
| 2026-05-04 15:18 | 36.67141 | 13.63994 | 22855 ft | 399 kts | 322° |
| 2026-05-04 15:19 | 36.71660 | 13.59917 | 23782 ft | 403 kts | 322° |
| 2026-05-04 15:19 | 36.73941 | 13.57857 | 24145 ft | 406 kts | 322° |
| 2026-05-04 15:19 | 36.78537 | 13.53701 | 24933 ft | 409 kts | 322° |
| 2026-05-04 15:20 | 36.80818 | 13.51635 | 25323 ft | 410 kts | 322° |
| 2026-05-04 15:20 | 36.83134 | 13.49538 | 25699 ft | 412 kts | 322° |
| 2026-05-04 15:20 | 36.85458 | 13.47431 | 26063 ft | 413 kts | 322° |
| 2026-05-04 15:20 | 36.87793 | 13.45311 | 26408 ft | 415 kts | 322° |
| 2026-05-04 15:21 | 36.90136 | 13.43184 | 26756 ft | 417 kts | 322° |
| 2026-05-04 15:21 | 36.92492 | 13.41043 | 27098 ft | 419 kts | 322° |
| 2026-05-04 15:21 | 36.97225 | 13.36736 | 27759 ft | 422 kts | 322° |
| 2026-05-04 15:22 | 36.99581 | 13.34590 | 28065 ft | 424 kts | 322° |
| 2026-05-04 15:22 | 37.01977 | 13.32406 | 28385 ft | 426 kts | 322° |
| 2026-05-04 15:22 | 37.03592 | 13.30932 | 28595 ft | 427 kts | 322° |
| 2026-05-04 15:23 | 37.04370 | 13.30222 | 28701 ft | 427 kts | 322° |
| 2026-05-04 15:23 | 37.06477 | 13.28298 | 28952 ft | 429 kts | 322° |
| 2026-05-04 15:23 | 37.08895 | 13.26088 | 29252 ft | 431 kts | 322° |
| 2026-05-04 15:23 | 37.11322 | 13.23869 | 29550 ft | 432 kts | 322° |
| 2026-05-04 15:24 | 37.16139 | 13.19460 | 30360 ft | 429 kts | 321° |
| 2026-05-04 15:24 | 37.20938 | 13.15062 | 31113 ft | 425 kts | 321° |
| 2026-05-04 15:25 | 37.23323 | 13.12874 | 31416 ft | 425 kts | 321° |
| 2026-05-04 15:25 | 37.25715 | 13.10678 | 31746 ft | 424 kts | 321° |
| 2026-05-04 15:25 | 37.28086 | 13.08499 | 32121 ft | 422 kts | 321° |
| 2026-05-04 15:26 | 37.32782 | 13.04178 | 32782 ft | 419 kts | 321° |
| 2026-05-04 15:26 | 37.35141 | 13.02009 | 33102 ft | 419 kts | 321° |
| 2026-05-04 15:26 | 37.39895 | 12.97801 | 33765 ft | 416 kts | 322° |
| 2026-05-04 15:27 | 37.42272 | 12.95731 | 34062 ft | 416 kts | 322° |
| 2026-05-04 15:27 | 37.46991 | 12.91617 | 34608 ft | 413 kts | 322° |
| 2026-05-04 15:28 | 37.51705 | 12.87483 | 35065 ft | 413 kts | 321° |
| 2026-05-04 15:28 | 37.54059 | 12.85413 | 35322 ft | 411 kts | 321° |
| 2026-05-04 15:28 | 37.58745 | 12.81281 | 35812 ft | 410 kts | 321° |
| 2026-05-04 15:29 | 37.61053 | 12.79242 | 36017 ft | 409 kts | 321° |
| 2026-05-04 15:30 | 37.70415 | 12.70957 | 36126 ft | 409 kts | 321° |
| 2026-05-04 15:30 | 37.77347 | 12.64808 | 36131 ft | 406 kts | 321° |
| 2026-05-04 15:31 | 37.84269 | 12.58652 | 36131 ft | 404 kts | 321° |
| 2026-05-04 15:32 | 37.95783 | 12.48379 | 36137 ft | 406 kts | 321° |
| 2026-05-04 15:34 | 38.07353 | 12.38016 | 36130 ft | 410 kts | 321° |
| 2026-05-04 15:34 | 38.14360 | 12.31721 | 36124 ft | 411 kts | 321° |
| 2026-05-04 15:35 | 38.21359 | 12.25418 | 36111 ft | 413 kts | 321° |
| 2026-05-04 15:36 | 38.28392 | 12.19069 | 36111 ft | 413 kts | 321° |
| 2026-05-04 15:36 | 38.33087 | 12.14822 | 36103 ft | 413 kts | 321° |
| 2026-05-04 15:37 | 38.37766 | 12.10583 | 36101 ft | 412 kts | 320° |
| 2026-05-04 15:37 | 38.42444 | 12.06338 | 36100 ft | 412 kts | 320° |
| 2026-05-04 15:38 | 38.47083 | 12.02121 | 36094 ft | 412 kts | 320° |
| 2026-05-04 15:38 | 38.51750 | 11.97871 | 36096 ft | 411 kts | 320° |
| 2026-05-04 15:39 | 38.56407 | 11.93624 | 36092 ft | 411 kts | 320° |
| 2026-05-04 15:40 | 38.63386 | 11.87247 | 36096 ft | 411 kts | 320° |
| 2026-05-04 15:40 | 38.68007 | 11.83015 | 36096 ft | 411 kts | 320° |
| 2026-05-04 15:41 | 38.72655 | 11.78752 | 36089 ft | 411 kts | 320° |
| 2026-05-04 15:41 | 38.77311 | 11.74475 | 36089 ft | 411 kts | 320° |
| 2026-05-04 15:42 | 38.81925 | 11.70229 | 36092 ft | 411 kts | 320° |
| 2026-05-04 15:42 | 38.86583 | 11.65936 | 36089 ft | 411 kts | 320° |
| 2026-05-04 15:43 | 38.91234 | 11.61643 | 36088 ft | 412 kts | 320° |
| 2026-05-04 15:43 | 38.95890 | 11.57337 | 36087 ft | 412 kts | 320° |
| 2026-05-04 15:44 | 39.00525 | 11.53043 | 36088 ft | 412 kts | 320° |
| 2026-05-04 15:44 | 39.05183 | 11.48723 | 36087 ft | 413 kts | 320° |
| 2026-05-04 15:45 | 39.09844 | 11.44391 | 36090 ft | 413 kts | 320° |
| 2026-05-04 15:45 | 39.14503 | 11.40054 | 36086 ft | 413 kts | 320° |
| 2026-05-04 15:46 | 39.19165 | 11.35707 | 36085 ft | 413 kts | 320° |
| 2026-05-04 15:46 | 39.23788 | 11.31389 | 36084 ft | 412 kts | 320° |
| 2026-05-04 15:47 | 39.28436 | 11.27041 | 36087 ft | 412 kts | 320° |
| 2026-05-04 15:47 | 39.33077 | 11.22692 | 36078 ft | 412 kts | 320° |
| 2026-05-04 15:48 | 39.37706 | 11.18347 | 36081 ft | 411 kts | 320° |
| 2026-05-04 15:48 | 39.44648 | 11.11817 | 36086 ft | 411 kts | 320° |
| 2026-05-04 15:49 | 39.49243 | 11.07485 | 36077 ft | 410 kts | 320° |
| 2026-05-04 15:49 | 39.53866 | 11.03120 | 36083 ft | 410 kts | 320° |
| 2026-05-04 15:50 | 39.58454 | 10.98781 | 36082 ft | 410 kts | 320° |
| 2026-05-04 15:50 | 39.63060 | 10.94417 | 36080 ft | 410 kts | 320° |
| 2026-05-04 15:51 | 39.67664 | 10.90048 | 36087 ft | 410 kts | 320° |
| 2026-05-04 15:51 | 39.72266 | 10.85673 | 36079 ft | 410 kts | 320° |
| 2026-05-04 15:52 | 39.76870 | 10.81290 | 36078 ft | 410 kts | 320° |
| 2026-05-04 15:52 | 39.81467 | 10.76905 | 36079 ft | 409 kts | 319° |
| 2026-05-04 15:53 | 39.86057 | 10.72520 | 36080 ft | 409 kts | 319° |
| 2026-05-04 15:53 | 39.90614 | 10.68158 | 36078 ft | 409 kts | 319° |
| 2026-05-04 15:54 | 39.95209 | 10.63754 | 36077 ft | 409 kts | 319° |
| 2026-05-04 15:54 | 39.99792 | 10.59353 | 36077 ft | 408 kts | 319° |
| 2026-05-04 15:55 | 40.04369 | 10.54950 | 36073 ft | 408 kts | 319° |
| 2026-05-04 15:55 | 40.08907 | 10.50577 | 36072 ft | 408 kts | 319° |
| 2026-05-04 15:56 | 40.13481 | 10.46162 | 36073 ft | 408 kts | 318° |
| 2026-05-04 15:56 | 40.18046 | 10.41748 | 36066 ft | 408 kts | 318° |
| 2026-05-04 15:57 | 40.22587 | 10.37350 | 36066 ft | 408 kts | 318° |
| 2026-05-04 15:57 | 40.27152 | 10.32921 | 36070 ft | 408 kts | 318° |
| 2026-05-04 15:58 | 40.31715 | 10.28486 | 36065 ft | 409 kts | 318° |
| 2026-05-04 15:58 | 40.36286 | 10.24035 | 36062 ft | 409 kts | 318° |
| 2026-05-04 15:59 | 40.40864 | 10.19571 | 36060 ft | 410 kts | 317° |
| 2026-05-04 15:59 | 40.45431 | 10.15109 | 36063 ft | 411 kts | 317° |
| 2026-05-04 16:00 | 40.50044 | 10.10594 | 36062 ft | 413 kts | 317° |
| 2026-05-04 16:00 | 40.54656 | 10.06073 | 36061 ft | 414 kts | 317° |
| 2026-05-04 16:01 | 40.59254 | 10.01557 | 36058 ft | 415 kts | 317° |
| 2026-05-04 16:01 | 40.63885 | 9.97001 | 36055 ft | 416 kts | 317° |
| 2026-05-04 16:02 | 40.68523 | 9.92430 | 36057 ft | 416 kts | 317° |
| 2026-05-04 16:03 | 40.74703 | 9.86327 | 36049 ft | 417 kts | 317° |
| 2026-05-04 16:03 | 40.79342 | 9.81737 | 36043 ft | 417 kts | 316° |
| 2026-05-04 16:04 | 40.83978 | 9.77141 | 36031 ft | 416 kts | 316° |
| 2026-05-04 16:04 | 40.90911 | 9.70252 | 36029 ft | 416 kts | 316° |
| 2026-05-04 16:05 | 40.95527 | 9.65655 | 36027 ft | 415 kts | 316° |
| 2026-05-04 16:06 | 41.02456 | 9.58739 | 36031 ft | 415 kts | 316° |
| 2026-05-04 16:07 | 41.11656 | 9.49526 | 36047 ft | 415 kts | 316° |
| 2026-05-04 16:08 | 41.20868 | 9.40267 | 36053 ft | 416 kts | 316° |
| 2026-05-04 16:09 | 41.31948 | 9.28337 | 36059 ft | 414 kts | 313° |
| 2026-05-04 16:10 | 41.40783 | 9.18434 | 36050 ft | 415 kts | 313° |
| 2026-05-04 16:11 | 41.49608 | 9.08556 | 36042 ft | 415 kts | 313° |
| 2026-05-04 16:12 | 41.62748 | 8.93760 | 36043 ft | 414 kts | 313° |
| 2026-05-04 16:13 | 41.71510 | 8.83846 | 36055 ft | 414 kts | 313° |
| 2026-05-04 16:14 | 41.80871 | 8.74590 | 36043 ft | 428 kts | 324° |
| 2026-05-04 16:15 | 41.88841 | 8.68835 | 36061 ft | 442 kts | 324° |
| 2026-05-04 16:16 | 41.94316 | 8.64840 | 36059 ft | 447 kts | 324° |
| 2026-05-04 16:17 | 42.07982 | 8.54750 | 36043 ft | 449 kts | 324° |
| 2026-05-04 16:18 | 42.18890 | 8.46653 | 36037 ft | 447 kts | 323° |
| 2026-05-04 16:19 | 42.32491 | 8.36509 | 36044 ft | 446 kts | 323° |
| 2026-05-04 16:20 | 42.46076 | 8.26336 | 36030 ft | 446 kts | 323° |
| 2026-05-04 16:22 | 42.59609 | 8.16152 | 36032 ft | 445 kts | 323° |
| 2026-05-04 16:23 | 42.75834 | 8.03870 | 36029 ft | 446 kts | 323° |
| 2026-05-04 16:25 | 42.92126 | 7.91464 | 36024 ft | 447 kts | 323° |
| 2026-05-04 16:26 | 43.11138 | 7.76888 | 36025 ft | 448 kts | 323° |
| 2026-05-04 16:28 | 43.24698 | 7.66397 | 36026 ft | 448 kts | 323° |
| 2026-05-04 16:29 | 43.43667 | 7.51632 | 36053 ft | 450 kts | 323° |
| 2026-05-04 16:31 | 43.57348 | 7.40917 | 36047 ft | 451 kts | 323° |
| 2026-05-04 16:32 | 43.73144 | 7.27171 | 36040 ft | 444 kts | 319° |
| 2026-05-04 16:33 | 43.83431 | 7.17660 | 36047 ft | 446 kts | 319° |
| 2026-05-04 16:34 | 43.91192 | 7.10516 | 36052 ft | 446 kts | 319° |
| 2026-05-04 16:35 | 44.06697 | 6.96165 | 36061 ft | 448 kts | 320° |
| 2026-05-04 16:36 | 44.14443 | 6.88963 | 36068 ft | 449 kts | 319° |
| 2026-05-04 16:37 | 44.22245 | 6.81683 | 36068 ft | 450 kts | 319° |
| 2026-05-04 16:38 | 44.32659 | 6.71927 | 36089 ft | 450 kts | 319° |
| 2026-05-04 16:39 | 44.45650 | 6.59694 | 36059 ft | 452 kts | 319° |
| 2026-05-04 16:40 | 44.56088 | 6.49816 | 36067 ft | 452 kts | 319° |
| 2026-05-04 16:41 | 44.69055 | 6.37473 | 36078 ft | 451 kts | 319° |
| 2026-05-04 16:43 | 44.82033 | 6.25049 | 36070 ft | 450 kts | 319° |
| 2026-05-04 16:43 | 44.89774 | 6.17608 | 36059 ft | 450 kts | 319° |
| 2026-05-04 16:45 | 45.05294 | 6.02610 | 36036 ft | 452 kts | 320° |
| 2026-05-04 16:46 | 45.16816 | 5.91412 | 36022 ft | 454 kts | 320° |
| 2026-05-04 16:47 | 45.20513 | 5.87813 | 36041 ft | 439 kts | 320° |
| 2026-05-04 16:47 | 45.25441 | 5.83008 | 35970 ft | 431 kts | 319° |
| 2026-05-04 16:48 | 45.32974 | 5.75604 | 36022 ft | 447 kts | 320° |
| 2026-05-04 16:48 | 45.35548 | 5.73074 | 36019 ft | 452 kts | 320° |
| 2026-05-04 16:49 | 45.46021 | 5.62770 | 36025 ft | 462 kts | 320° |
| 2026-05-04 16:50 | 45.55717 | 5.53185 | 36018 ft | 462 kts | 320° |
| 2026-05-04 16:51 | 45.63867 | 5.45761 | 36015 ft | 462 kts | 323° |
| 2026-05-04 16:52 | 45.74787 | 5.36126 | 36022 ft | 460 kts | 322° |
| 2026-05-04 16:53 | 45.82917 | 5.28817 | 36005 ft | 461 kts | 322° |
| 2026-05-04 16:54 | 45.93715 | 5.19071 | 36009 ft | 459 kts | 322° |
| 2026-05-04 16:55 | 46.10362 | 5.05351 | 35991 ft | 465 kts | 332° |
| 2026-05-04 16:56 | 46.25247 | 4.96058 | 35980 ft | 467 kts | 331° |
| 2026-05-04 16:57 | 46.34155 | 4.90340 | 35981 ft | 467 kts | 331° |
| 2026-05-04 16:58 | 46.46002 | 4.82715 | 35961 ft | 466 kts | 330° |
| 2026-05-04 17:00 | 46.63767 | 4.71207 | 35961 ft | 466 kts | 330° |
| 2026-05-04 17:01 | 46.78592 | 4.61540 | 35948 ft | 467 kts | 330° |
| 2026-05-04 17:02 | 46.90490 | 4.53787 | 35949 ft | 468 kts | 330° |
| 2026-05-04 17:03 | 46.99392 | 4.47983 | 35949 ft | 469 kts | 330° |
| 2026-05-04 17:03 | 47.08325 | 4.42133 | 35942 ft | 469 kts | 330° |
| 2026-05-04 17:04 | 47.20238 | 4.34295 | 35934 ft | 468 kts | 330° |
| 2026-05-04 17:05 | 47.32081 | 4.26466 | 35930 ft | 467 kts | 330° |
| 2026-05-04 17:06 | 47.40980 | 4.20556 | 35930 ft | 467 kts | 330° |
| 2026-05-04 17:07 | 47.48872 | 4.15296 | 35923 ft | 467 kts | 330° |
| 2026-05-04 17:07 | 47.55769 | 4.10688 | 35926 ft | 467 kts | 330° |
| 2026-05-04 17:08 | 47.64694 | 4.04724 | 35921 ft | 468 kts | 330° |
| 2026-05-04 17:09 | 47.70609 | 4.00762 | 35925 ft | 469 kts | 330° |
| 2026-05-04 17:09 | 47.76572 | 3.96755 | 35931 ft | 470 kts | 330° |
| 2026-05-04 17:10 | 47.91513 | 3.86668 | 35927 ft | 472 kts | 330° |
| 2026-05-04 17:11 | 47.97513 | 3.82599 | 35922 ft | 473 kts | 330° |
| 2026-05-04 17:12 | 48.06472 | 3.76504 | 35923 ft | 474 kts | 330° |
| 2026-05-04 17:13 | 48.20038 | 3.63460 | 35939 ft | 457 kts | 307° |
| 2026-05-04 17:14 | 48.28567 | 3.49330 | 35919 ft | 459 kts | 307° |
| 2026-05-04 17:15 | 48.35076 | 3.38715 | 35926 ft | 459 kts | 307° |
| 2026-05-04 17:16 | 48.44985 | 3.26521 | 35920 ft | 476 kts | 332° |
| 2026-05-04 17:17 | 48.57292 | 3.18887 | 35931 ft | 479 kts | 333° |
| 2026-05-04 17:18 | 48.69551 | 3.11057 | 35930 ft | 479 kts | 332° |
| 2026-05-04 17:19 | 48.81840 | 3.03124 | 35940 ft | 481 kts | 332° |
| 2026-05-04 17:20 | 48.92875 | 2.94306 | 35931 ft | 477 kts | 324° |
| 2026-05-04 17:20 | 49.01440 | 2.86581 | 35932 ft | 476 kts | 325° |
| 2026-05-04 17:21 | 49.12932 | 2.76424 | 35945 ft | 478 kts | 327° |
| 2026-05-04 17:22 | 49.18666 | 2.71353 | 35937 ft | 478 kts | 327° |
| 2026-05-04 17:23 | 49.29716 | 2.61532 | 35930 ft | 479 kts | 327° |
| 2026-05-04 17:24 | 49.38353 | 2.53816 | 35938 ft | 478 kts | 327° |
| 2026-05-04 17:25 | 49.49803 | 2.43541 | 35937 ft | 477 kts | 327° |
| 2026-05-04 17:25 | 49.55090 | 2.37508 | 35950 ft | 472 kts | 316° |
| 2026-05-04 17:26 | 49.60023 | 2.30846 | 35938 ft | 471 kts | 316° |
| 2026-05-04 17:27 | 49.72393 | 2.14219 | 35935 ft | 471 kts | 316° |
| 2026-05-04 17:28 | 49.82281 | 2.00983 | 35941 ft | 471 kts | 316° |
| 2026-05-04 17:29 | 49.97135 | 1.80943 | 35949 ft | 472 kts | 316° |
| 2026-05-04 17:31 | 50.09479 | 1.64173 | 35948 ft | 472 kts | 316° |
| 2026-05-04 17:32 | 50.21852 | 1.47380 | 35951 ft | 472 kts | 316° |
| 2026-05-04 17:33 | 50.31739 | 1.33861 | 35970 ft | 472 kts | 316° |
| 2026-05-04 17:34 | 50.41603 | 1.20294 | 35983 ft | 471 kts | 316° |
| 2026-05-04 17:35 | 50.53915 | 1.03445 | 35977 ft | 470 kts | 319° |
| 2026-05-04 17:36 | 50.58198 | 0.98156 | 35978 ft | 470 kts | 320° |
| 2026-05-04 17:36 | 50.63378 | 0.91841 | 35985 ft | 470 kts | 320° |
| 2026-05-04 17:37 | 50.65956 | 0.88666 | 35985 ft | 470 kts | 320° |
| 2026-05-04 17:37 | 50.68395 | 0.85640 | 35989 ft | 470 kts | 320° |
| 2026-05-04 17:38 | 50.73527 | 0.79234 | 35991 ft | 470 kts | 319° |
| 2026-05-04 17:38 | 50.78657 | 0.72802 | 35992 ft | 470 kts | 319° |
| 2026-05-04 17:39 | 50.86320 | 0.63167 | 35992 ft | 470 kts | 319° |
| 2026-05-04 17:39 | 50.91455 | 0.56690 | 35992 ft | 470 kts | 319° |
| 2026-05-04 17:40 | 50.96572 | 0.50216 | 35999 ft | 471 kts | 319° |
| 2026-05-04 17:40 | 51.01668 | 0.43746 | 35995 ft | 471 kts | 319° |
| 2026-05-04 17:41 | 51.05971 | 0.38271 | 36000 ft | 471 kts | 319° |
| 2026-05-04 17:41 | 51.10926 | 0.31956 | 35996 ft | 472 kts | 319° |
| 2026-05-04 17:42 | 51.16052 | 0.25413 | 35992 ft | 472 kts | 319° |
| 2026-05-04 17:42 | 51.20928 | 0.19168 | 35996 ft | 472 kts | 319° |
| 2026-05-04 17:43 | 51.26107 | 0.12518 | 36021 ft | 472 kts | 319° |
| 2026-05-04 17:43 | 51.31013 | 0.05683 | 36008 ft | 470 kts | 308° |
| 2026-05-04 17:44 | 51.32910 | 0.01443 | 36033 ft | 466 kts | 297° |
| 2026-05-04 17:44 | 51.34312 | -0.03186 | 36019 ft | 463 kts | 287° |
| 2026-05-04 17:44 | 51.36027 | -0.13120 | 36014 ft | 462 kts | 282° |
| 2026-05-04 17:45 | 51.36814 | -0.18112 | 35861 ft | 465 kts | 282° |
| 2026-05-04 17:45 | 51.37605 | -0.23098 | 35728 ft | 468 kts | 282° |
| 2026-05-04 17:45 | 51.38419 | -0.28144 | 35614 ft | 469 kts | 282° |
| 2026-05-04 17:45 | 51.39222 | -0.33063 | 35517 ft | 470 kts | 282° |
| 2026-05-04 17:46 | 51.40900 | -0.43228 | 35343 ft | 472 kts | 282° |
| 2026-05-04 17:46 | 51.42547 | -0.53207 | 35126 ft | 454 kts | 282° |
| 2026-05-04 17:47 | 51.43346 | -0.58069 | 34999 ft | 451 kts | 282° |
| 2026-05-04 17:47 | 51.44141 | -0.62942 | 34873 ft | 452 kts | 282° |
| 2026-05-04 17:47 | 51.45717 | -0.72645 | 34649 ft | 453 kts | 282° |
| 2026-05-04 17:48 | 51.46508 | -0.77538 | 34539 ft | 453 kts | 282° |
| 2026-05-04 17:48 | 51.47298 | -0.82431 | 34431 ft | 453 kts | 282° |
| 2026-05-04 17:48 | 51.48867 | -0.92199 | 34219 ft | 451 kts | 282° |
| 2026-05-04 17:49 | 51.49646 | -0.97066 | 34116 ft | 449 kts | 282° |
| 2026-05-04 17:49 | 51.50419 | -1.01913 | 34016 ft | 448 kts | 282° |
| 2026-05-04 17:49 | 51.51156 | -1.06545 | 33896 ft | 446 kts | 282° |
| 2026-05-04 17:49 | 51.51921 | -1.11365 | 33447 ft | 450 kts | 282° |
| 2026-05-04 17:50 | 51.52536 | -1.15250 | 32393 ft | 455 kts | 282° |
| 2026-05-04 17:50 | 51.53246 | -1.20147 | 31184 ft | 456 kts | 279° |
| 2026-05-04 17:50 | 51.53852 | -1.25143 | 30030 ft | 454 kts | 278° |
| 2026-05-04 17:50 | 51.54412 | -1.30136 | 28649 ft | 453 kts | 277° |
| 2026-05-04 17:51 | 51.54945 | -1.34943 | 27403 ft | 450 kts | 277° |
| 2026-05-04 17:51 | 51.55505 | -1.39896 | 26311 ft | 445 kts | 277° |
| 2026-05-04 17:51 | 51.56052 | -1.44626 | 26211 ft | 417 kts | 277° |
| 2026-05-04 17:51 | 51.56572 | -1.49078 | 26023 ft | 395 kts | 277° |
| 2026-05-04 17:52 | 51.57066 | -1.53311 | 25811 ft | 376 kts | 277° |
| 2026-05-04 17:52 | 51.57536 | -1.57363 | 25560 ft | 361 kts | 277° |
| 2026-05-04 17:52 | 51.57987 | -1.61264 | 25274 ft | 348 kts | 277° |
| 2026-05-04 17:52 | 51.58416 | -1.64991 | 24967 ft | 338 kts | 276° |
| 2026-05-04 17:53 | 51.58756 | -1.68686 | 24625 ft | 328 kts | 273° |